EWG5WA EDDK-EDDK
Flight info
| Callsign | EWG5WA |
|---|---|
| Flight time | 0h 8m |
| Altitude | 30000 |
| Route | KUMIK1R/31R KUMIK Y854 BOMBI DCT GIGET DCT ABUKA/N0448F310 DCT BANUX/N0449F300 DCT KRH DCT NATOR/N0450F310 DCT LUTIX DCT BENOT |
| Aircraft | A320/M-SDE3FGHIRWY/LB1 |
Departure
| Time | 2026-04-24 19:42 |
|---|---|
| Airport | Cologne Bonn Airport (EDDK) |
Arrival
| Time | 2026-04-24 19:50 |
|---|---|
| Airport | Cologne Bonn Airport (EDDK) |
| Time | Latitude | Longitude | Altitude | Speed | Heading |
|---|---|---|---|---|---|
| 2026-04-24 19:13 | 50.96377 | 7.71283 | 14418 ft | 395 kts | 107° |
| 2026-04-24 19:14 | 50.95832 | 7.74040 | 14787 ft | 397 kts | 107° |
| 2026-04-24 19:14 | 50.94998 | 7.78255 | 15346 ft | 402 kts | 108° |
| 2026-04-24 19:14 | 50.93959 | 7.82385 | 15881 ft | 406 kts | 117° |
| 2026-04-24 19:14 | 50.92491 | 7.86231 | 16419 ft | 409 kts | 124° |
| 2026-04-24 19:15 | 50.90904 | 7.90009 | 16946 ft | 413 kts | 124° |
| 2026-04-24 19:15 | 50.89307 | 7.93816 | 17480 ft | 417 kts | 124° |
| 2026-04-24 19:15 | 50.87702 | 7.97645 | 17997 ft | 421 kts | 124° |
| 2026-04-24 19:15 | 50.86113 | 8.01564 | 18521 ft | 424 kts | 124° |
| 2026-04-24 19:16 | 50.82925 | 8.09526 | 19405 ft | 432 kts | 123° |
| 2026-04-24 19:16 | 50.81254 | 8.13709 | 19867 ft | 435 kts | 124° |
| 2026-04-24 19:16 | 50.79698 | 8.17611 | 20295 ft | 438 kts | 124° |
| 2026-04-24 19:17 | 50.78045 | 8.21743 | 20729 ft | 441 kts | 125° |
| 2026-04-24 19:17 | 50.76073 | 8.25364 | 21130 ft | 440 kts | 142° |
| 2026-04-24 19:17 | 50.73536 | 8.28030 | 21544 ft | 439 kts | 153° |
| 2026-04-24 19:17 | 50.70863 | 8.30392 | 21969 ft | 441 kts | 154° |
| 2026-04-24 19:18 | 50.68150 | 8.32772 | 22392 ft | 444 kts | 154° |
| 2026-04-24 19:18 | 50.65467 | 8.35128 | 22796 ft | 447 kts | 154° |
| 2026-04-24 19:18 | 50.62745 | 8.37519 | 23198 ft | 450 kts | 154° |
| 2026-04-24 19:18 | 50.59985 | 8.39937 | 22389 ft | 457 kts | 154° |
| 2026-04-24 19:19 | 50.57027 | 8.41821 | 21315 ft | 456 kts | 168° |
| 2026-04-24 19:19 | 50.53965 | 8.42461 | 20536 ft | 447 kts | 183° |
| 2026-04-24 19:19 | 50.50917 | 8.41860 | 19822 ft | 438 kts | 198° |
| 2026-04-24 19:19 | 50.48132 | 8.40079 | 19131 ft | 430 kts | 212° |
| 2026-04-24 19:20 | 50.45773 | 8.37286 | 18454 ft | 423 kts | 226° |
| 2026-04-24 19:20 | 50.43961 | 8.33716 | 17690 ft | 417 kts | 240° |
| 2026-04-24 19:20 | 50.42771 | 8.29607 | 16957 ft | 413 kts | 253° |
| 2026-04-24 19:20 | 50.42248 | 8.25212 | 16250 ft | 409 kts | 267° |
| 2026-04-24 19:21 | 50.42391 | 8.20789 | 15566 ft | 406 kts | 280° |
| 2026-04-24 19:21 | 50.43190 | 8.16564 | 14889 ft | 403 kts | 294° |
| 2026-04-24 19:21 | 50.44612 | 8.12805 | 14388 ft | 397 kts | 308° |
| 2026-04-24 19:21 | 50.46499 | 8.09770 | 14265 ft | 382 kts | 320° |
| 2026-04-24 19:22 | 50.47913 | 8.08176 | 14173 ft | 371 kts | 328° |
| 2026-04-24 19:22 | 50.50920 | 8.06118 | 14023 ft | 337 kts | 342° |
| 2026-04-24 19:22 | 50.53083 | 8.05060 | 13891 ft | 314 kts | 341° |
| 2026-04-24 19:22 | 50.55120 | 8.04051 | 13516 ft | 302 kts | 341° |
| 2026-04-24 19:23 | 50.57083 | 8.03069 | 12974 ft | 297 kts | 341° |
| 2026-04-24 19:23 | 50.59047 | 8.02086 | 12386 ft | 294 kts | 342° |
| 2026-04-24 19:23 | 50.60985 | 8.01115 | 11808 ft | 291 kts | 342° |
| 2026-04-24 19:23 | 50.62908 | 8.00152 | 11186 ft | 290 kts | 342° |
| 2026-04-24 19:24 | 50.64819 | 7.99196 | 10846 ft | 285 kts | 342° |
| 2026-04-24 19:24 | 50.66716 | 7.98244 | 10789 ft | 288 kts | 342° |
| 2026-04-24 19:24 | 50.68622 | 7.97286 | 10726 ft | 287 kts | 342° |
| 2026-04-24 19:24 | 50.70528 | 7.96329 | 10671 ft | 287 kts | 342° |
| 2026-04-24 19:25 | 50.72333 | 7.95012 | 10603 ft | 286 kts | 325° |
| 2026-04-24 19:25 | 50.73913 | 7.93099 | 10552 ft | 286 kts | 324° |
| 2026-04-24 19:25 | 50.75494 | 7.91215 | 10285 ft | 284 kts | 316° |
| 2026-04-24 19:25 | 50.76529 | 7.88646 | 10182 ft | 285 kts | 289° |
| 2026-04-24 19:26 | 50.76727 | 7.85487 | 10186 ft | 287 kts | 265° |
| 2026-04-24 19:26 | 50.76614 | 7.82475 | 10184 ft | 270 kts | 277° |
| 2026-04-24 19:26 | 50.76805 | 7.79500 | 10192 ft | 277 kts | 268° |
| 2026-04-24 19:26 | 50.76199 | 7.76649 | 10192 ft | 274 kts | 234° |
| 2026-04-24 19:27 | 50.74730 | 7.74899 | 10196 ft | 265 kts | 197° |
| 2026-04-24 19:27 | 50.72908 | 7.74704 | 10199 ft | 265 kts | 170° |
| 2026-04-24 19:27 | 50.71160 | 7.75587 | 10193 ft | 265 kts | 151° |
| 2026-04-24 19:27 | 50.69682 | 7.77276 | 10197 ft | 263 kts | 133° |
| 2026-04-24 19:28 | 50.68452 | 7.79413 | 10193 ft | 264 kts | 129° |
| 2026-04-24 19:28 | 50.67288 | 7.81654 | 10198 ft | 264 kts | 127° |
| 2026-04-24 19:28 | 50.66151 | 7.83932 | 10193 ft | 263 kts | 125° |
| 2026-04-24 19:28 | 50.65328 | 7.86470 | 10194 ft | 260 kts | 103° |
| 2026-04-24 19:29 | 50.65624 | 7.91958 | 10198 ft | 254 kts | 60° |
| 2026-04-24 19:29 | 50.66666 | 7.94172 | 10195 ft | 251 kts | 40° |
| 2026-04-24 19:29 | 50.68104 | 7.95630 | 10191 ft | 250 kts | 20° |
| 2026-04-24 19:30 | 50.69790 | 7.96196 | 10192 ft | 249 kts | 360° |
| 2026-04-24 19:30 | 50.71491 | 7.95771 | 10196 ft | 249 kts | 339° |
| 2026-04-24 19:30 | 50.72987 | 7.94399 | 10190 ft | 250 kts | 319° |
| 2026-04-24 19:30 | 50.74188 | 7.92412 | 10190 ft | 251 kts | 311° |
| 2026-04-24 19:31 | 50.75301 | 7.90278 | 10191 ft | 252 kts | 309° |
| 2026-04-24 19:31 | 50.76386 | 7.88097 | 10196 ft | 252 kts | 309° |
| 2026-04-24 19:31 | 50.77316 | 7.85762 | 10194 ft | 253 kts | 290° |
| 2026-04-24 19:31 | 50.77520 | 7.83012 | 10195 ft | 256 kts | 263° |
| 2026-04-24 19:32 | 50.76890 | 7.80374 | 10190 ft | 260 kts | 235° |
| 2026-04-24 19:32 | 50.75538 | 7.78498 | 10192 ft | 263 kts | 206° |
| 2026-04-24 19:32 | 50.73766 | 7.77876 | 10192 ft | 264 kts | 176° |
| 2026-04-24 19:32 | 50.72026 | 7.78690 | 10193 ft | 263 kts | 146° |
| 2026-04-24 19:33 | 50.70707 | 7.80658 | 10192 ft | 262 kts | 128° |
| 2026-04-24 19:33 | 50.69557 | 7.82902 | 10192 ft | 263 kts | 127° |
| 2026-04-24 19:33 | 50.68433 | 7.85135 | 10193 ft | 263 kts | 127° |
| 2026-04-24 19:33 | 50.67414 | 7.87509 | 10194 ft | 261 kts | 110° |
| 2026-04-24 19:34 | 50.67137 | 7.90281 | 10191 ft | 256 kts | 81° |
| 2026-04-24 19:34 | 50.67710 | 7.92894 | 10192 ft | 252 kts | 53° |
| 2026-04-24 19:34 | 50.68960 | 7.94762 | 10194 ft | 249 kts | 27° |
| 2026-04-24 19:34 | 50.70604 | 7.95529 | 10191 ft | 248 kts | 0° |
| 2026-04-24 19:35 | 50.72290 | 7.95023 | 10191 ft | 248 kts | 334° |
| 2026-04-24 19:35 | 50.73644 | 7.93351 | 10193 ft | 250 kts | 311° |
| 2026-04-24 19:35 | 50.74756 | 7.91227 | 10190 ft | 251 kts | 310° |
| 2026-04-24 19:35 | 50.75844 | 7.89070 | 10192 ft | 252 kts | 309° |
| 2026-04-24 19:36 | 50.76914 | 7.86884 | 10190 ft | 252 kts | 304° |
| 2026-04-24 19:36 | 50.77518 | 7.84292 | 10190 ft | 255 kts | 276° |
| 2026-04-24 19:36 | 50.77279 | 7.81526 | 10190 ft | 258 kts | 248° |
| 2026-04-24 19:36 | 50.76235 | 7.79235 | 10191 ft | 261 kts | 219° |
| 2026-04-24 19:37 | 50.74607 | 7.77990 | 10191 ft | 264 kts | 189° |
| 2026-04-24 19:37 | 50.72795 | 7.78141 | 10195 ft | 264 kts | 160° |
| 2026-04-24 19:37 | 50.71261 | 7.79652 | 10191 ft | 262 kts | 131° |
| 2026-04-24 19:37 | 50.70089 | 7.81868 | 10191 ft | 263 kts | 127° |
| 2026-04-24 19:38 | 50.68946 | 7.84124 | 10197 ft | 263 kts | 127° |
| 2026-04-24 19:38 | 50.67830 | 7.86368 | 10190 ft | 263 kts | 123° |
| 2026-04-24 19:38 | 50.67153 | 7.88989 | 10189 ft | 258 kts | 94° |
| 2026-04-24 19:38 | 50.67345 | 7.91753 | 10195 ft | 254 kts | 66° |
| 2026-04-24 19:39 | 50.68316 | 7.94031 | 10193 ft | 251 kts | 39° |
| 2026-04-24 19:39 | 50.69824 | 7.95341 | 10190 ft | 249 kts | 12° |
| 2026-04-24 19:39 | 50.71534 | 7.95415 | 10194 ft | 248 kts | 346° |
| 2026-04-24 19:39 | 50.73077 | 7.94233 | 10195 ft | 250 kts | 319° |
| 2026-04-24 19:40 | 50.74137 | 7.92064 | 10188 ft | 253 kts | 295° |
| 2026-04-24 19:40 | 50.74515 | 7.89364 | 10199 ft | 256 kts | 273° |
| 2026-04-24 19:40 | 50.74560 | 7.86549 | 10201 ft | 256 kts | 273° |
| 2026-04-24 19:40 | 50.74602 | 7.83734 | 10193 ft | 256 kts | 273° |
| 2026-04-24 19:41 | 50.74645 | 7.80920 | 10190 ft | 256 kts | 273° |
| 2026-04-24 19:41 | 50.74686 | 7.78110 | 10193 ft | 256 kts | 273° |
| 2026-04-24 19:41 | 50.74725 | 7.75293 | 10194 ft | 257 kts | 273° |
| 2026-04-24 19:41 | 50.74766 | 7.72486 | 9988 ft | 254 kts | 273° |
| 2026-04-24 19:42 | 50.74809 | 7.69713 | 9445 ft | 253 kts | 273° |
| 2026-04-24 19:42 | 50.74852 | 7.66935 | 8927 ft | 251 kts | 273° |
| 2026-04-24 19:42 | 50.74892 | 7.64192 | 8416 ft | 250 kts | 273° |
| 2026-04-24 19:42 | 50.74930 | 7.61463 | 7909 ft | 248 kts | 274° |
| 2026-04-24 19:43 | 50.74966 | 7.58743 | 7414 ft | 247 kts | 274° |
| 2026-04-24 19:43 | 50.75001 | 7.56038 | 6930 ft | 246 kts | 274° |
| 2026-04-24 19:43 | 50.75036 | 7.53339 | 6442 ft | 248 kts | 274° |
| 2026-04-24 19:43 | 50.75072 | 7.50607 | 5927 ft | 248 kts | 274° |
| 2026-04-24 19:44 | 50.75105 | 7.47900 | 5420 ft | 246 kts | 274° |
| 2026-04-24 19:44 | 50.75138 | 7.45216 | 4923 ft | 243 kts | 274° |
| 2026-04-24 19:44 | 50.75168 | 7.42561 | 4442 ft | 239 kts | 273° |
| 2026-04-24 19:44 | 50.75197 | 7.39963 | 4089 ft | 234 kts | 273° |
| 2026-04-24 19:45 | 50.75225 | 7.37403 | 3771 ft | 232 kts | 273° |
| 2026-04-24 19:45 | 50.75254 | 7.34870 | 3472 ft | 227 kts | 273° |
| 2026-04-24 19:45 | 50.75411 | 7.32443 | 3131 ft | 218 kts | 289° |
| 2026-04-24 19:45 | 50.76057 | 7.30364 | 2867 ft | 206 kts | 309° |
| 2026-04-24 19:46 | 50.77046 | 7.28788 | 2597 ft | 198 kts | 319° |
| 2026-04-24 19:46 | 50.78042 | 7.27356 | 2369 ft | 189 kts | 319° |
| 2026-04-24 19:46 | 50.78982 | 7.26004 | 2121 ft | 176 kts | 319° |
| 2026-04-24 19:46 | 50.79847 | 7.24756 | 1890 ft | 164 kts | 319° |
| 2026-04-24 19:47 | 50.80657 | 7.23588 | 1680 ft | 150 kts | 319° |
| 2026-04-24 19:47 | 50.81404 | 7.22512 | 1460 ft | 141 kts | 319° |
| 2026-04-24 19:47 | 50.82119 | 7.21477 | 1223 ft | 139 kts | 318° |
| 2026-04-24 19:47 | 50.82824 | 7.20452 | 1043 ft | 137 kts | 318° |
| 2026-04-24 19:48 | 50.83522 | 7.19441 | 916 ft | 136 kts | 317° |
| 2026-04-24 19:48 | 50.84226 | 7.18426 | 728 ft | 137 kts | 318° |
| 2026-04-24 19:48 | 50.85624 | 7.16418 | 335 ft | 135 kts | 317° |
| 2026-04-24 19:49 | 50.86687 | 7.14884 | 271 ft | 72 kts | 317° |
| 2026-04-24 19:49 | 50.87358 | 7.13911 | 242 ft | 62 kts | 317° |
| 2026-04-24 19:50 | 50.88004 | 7.12826 | 238 ft | 21 kts | 260° |
| 2026-04-24 19:50 | 50.87984 | 7.12690 | 234 ft | 10 kts | 261° |
| 2026-04-24 19:51 | 50.88036 | 7.12477 | 232 ft | 10 kts | 301° |
| 2026-04-24 19:51 | 50.88007 | 7.12399 | 232 ft | 8 kts | 217° |
| 2026-04-24 19:52 | 50.87984 | 7.12373 | 233 ft | 0 kts | 215° |